createdAt,value
2022-09-23T00:02:02.216Z,4.60
2022-09-23T00:04:29.393Z,4.57
2022-09-23T00:06:55.769Z,4.47
2022-09-23T00:09:22.165Z,4.30
2022-09-23T00:11:48.596Z,4.40
2022-09-23T00:14:15.300Z,4.20
2022-09-23T00:16:41.786Z,4.00
2022-09-23T00:19:08.294Z,4.30
2022-09-23T00:21:34.821Z,4.20
2022-09-23T00:24:02.333Z,4.70
2022-09-23T00:26:28.981Z,4.60
2022-09-23T00:28:55.445Z,4.87
2022-09-23T00:31:23.745Z,4.27
2022-09-23T00:33:57.289Z,4.57
2022-09-23T00:36:24.186Z,4.43
2022-09-23T00:38:50.677Z,4.53
2022-09-23T00:41:17.674Z,4.40
2022-09-23T00:43:44.177Z,4.57
2022-09-23T00:46:13.546Z,4.20
2022-09-23T00:48:40.852Z,4.80
2022-09-23T00:51:08.461Z,4.53
2022-09-23T00:53:34.916Z,3.90
2022-09-23T00:56:07.306Z,4.30
2022-09-23T00:58:35.823Z,4.63
2022-09-23T01:01:02.809Z,4.40
2022-09-23T01:03:29.683Z,4.53
2022-09-23T01:05:56.960Z,4.73
2022-09-23T01:08:24.526Z,4.07
2022-09-23T01:11:06.418Z,4.03
2022-09-23T01:13:38.101Z,4.53
2022-09-23T01:16:27.369Z,4.00
2022-09-23T01:18:56.632Z,3.93
2022-09-23T01:21:28.686Z,4.33
2022-09-23T01:24:02.444Z,4.23
2022-09-23T01:26:47.609Z,4.20
2022-09-23T01:29:17.702Z,4.20
2022-09-23T01:31:49.000Z,3.90
2022-09-23T01:34:24.207Z,4.53
2022-09-23T01:36:53.345Z,4.20
2022-09-23T01:39:35.514Z,4.30
2022-09-23T01:42:01.950Z,4.03
2022-09-23T01:44:48.612Z,4.50
2022-09-23T01:47:21.154Z,4.10
2022-09-23T01:49:51.889Z,4.43
2022-09-23T01:52:24.473Z,3.93
2022-09-23T01:55:09.464Z,4.23
2022-09-23T01:57:49.251Z,5.10
2022-09-23T02:00:17.395Z,4.50
2022-09-23T02:03:12.696Z,4.20
2022-09-23T02:05:41.398Z,4.20
2022-09-23T02:08:10.579Z,4.70
2022-09-23T02:10:47.390Z,4.20
2022-09-23T02:13:19.314Z,3.70
2022-09-23T02:15:49.143Z,4.17
2022-09-23T02:18:38.821Z,3.93
2022-09-23T02:21:07.318Z,4.30
2022-09-23T02:23:36.430Z,4.47
2022-09-23T02:26:08.817Z,4.37
2022-09-23T02:28:46.700Z,4.47
2022-09-23T02:31:21.377Z,4.13
2022-09-23T02:34:12.781Z,3.90
2022-09-23T02:36:56.158Z,3.90
2022-09-23T02:39:24.209Z,4.30
2022-09-23T02:42:07.683Z,5.23
2022-09-23T02:44:34.145Z,4.73
2022-09-23T02:47:00.774Z,4.60
2022-09-23T02:49:29.350Z,4.50
2022-09-23T02:51:56.684Z,4.53
2022-09-23T02:54:25.829Z,4.27
2022-09-23T02:56:53.039Z,4.83
2022-09-23T02:59:20.964Z,5.10
2022-09-23T03:01:52.230Z,4.80
2022-09-23T03:04:30.131Z,4.30
2022-09-23T03:06:59.276Z,5.03
2022-09-23T03:09:27.885Z,4.73
2022-09-23T03:11:59.257Z,4.43
2022-09-23T03:14:30.092Z,5.03
2022-09-23T03:17:01.479Z,4.33
2022-09-23T03:19:36.875Z,4.43
2022-09-23T03:22:26.291Z,4.33
2022-09-23T03:24:54.925Z,4.43
2022-09-23T03:27:27.481Z,4.43
2022-09-23T03:29:54.831Z,4.83
2022-09-23T03:32:23.022Z,4.40
2022-09-23T03:34:51.434Z,4.43
2022-09-23T03:37:20.974Z,5.30
2022-09-23T03:39:52.720Z,4.77
2022-09-23T03:42:22.484Z,4.47
2022-09-23T03:44:54.024Z,4.80
2022-09-23T03:47:21.005Z,5.20
2022-09-23T03:49:48.500Z,5.10
2022-09-23T03:52:15.499Z,6.03
2022-09-23T03:54:41.894Z,5.80
2022-09-23T03:57:08.458Z,6.10
2022-09-23T03:59:34.944Z,6.07
2022-09-23T04:02:02.533Z,6.40
2022-09-23T04:04:29.714Z,5.97
2022-09-23T04:06:56.281Z,5.60
2022-09-23T04:09:23.038Z,6.33
2022-09-23T04:11:50.018Z,6.53
2022-09-23T04:14:16.915Z,6.17
2022-09-23T04:16:43.527Z,6.57
2022-09-23T04:19:11.720Z,5.80
2022-09-23T04:21:38.975Z,6.80
2022-09-23T04:24:05.555Z,5.87
2022-09-23T04:26:32.617Z,5.77
2022-09-23T04:28:59.481Z,6.10
2022-09-23T04:31:26.169Z,6.47
2022-09-23T04:33:52.961Z,6.93
2022-09-23T04:36:19.532Z,6.10
2022-09-23T04:38:46.514Z,6.27
2022-09-23T04:41:13.319Z,6.67
2022-09-23T04:43:40.044Z,6.37
2022-09-23T04:46:07.711Z,5.90
2022-09-23T04:48:35.406Z,6.37
2022-09-23T04:51:03.428Z,6.30
2022-09-23T04:53:30.156Z,5.57
2022-09-23T04:56:11.211Z,6.60
2022-09-23T04:58:38.514Z,5.93
2022-09-23T05:01:19.056Z,6.13
2022-09-23T05:03:46.113Z,6.40
2022-09-23T05:06:16.239Z,6.67
2022-09-23T05:08:47.054Z,5.60
2022-09-23T05:11:13.548Z,5.63
2022-09-23T05:13:39.987Z,5.60
2022-09-23T05:16:08.324Z,5.47
2022-09-23T05:18:35.398Z,5.60
2022-09-23T05:21:02.483Z,5.23
2022-09-23T05:23:29.296Z,7.20
2022-09-23T05:25:56.782Z,6.83
2022-09-23T05:28:23.177Z,6.20
2022-09-23T05:30:49.581Z,5.67
2022-09-23T05:33:15.983Z,5.57
2022-09-23T05:35:48.581Z,5.57
2022-09-23T05:38:16.831Z,5.37
2022-09-23T05:40:43.627Z,5.23
2022-09-23T05:43:10.448Z,5.00
2022-09-23T05:45:37.098Z,4.77
2022-09-23T05:48:03.906Z,5.20
2022-09-23T05:50:30.353Z,5.20
2022-09-23T05:52:56.745Z,5.07
2022-09-23T05:55:23.172Z,4.67
2022-09-23T05:57:49.577Z,5.00
2022-09-23T06:00:16.615Z,4.87
2022-09-23T06:02:43.141Z,5.20
2022-09-23T06:05:09.656Z,4.90
2022-09-23T06:07:36.080Z,4.50
2022-09-23T06:10:02.530Z,5.43
2022-09-23T06:12:28.966Z,4.77
2022-09-23T06:14:55.391Z,4.80
2022-09-23T06:17:21.827Z,5.27
2022-09-23T06:19:48.247Z,5.17
2022-09-23T06:22:16.919Z,5.10
2022-09-23T06:24:43.346Z,4.97
2022-09-23T06:27:10.056Z,4.70
2022-09-23T06:29:36.985Z,4.97
2022-09-23T06:32:04.080Z,5.20
2022-09-23T06:34:32.994Z,4.90
2022-09-23T06:37:16.803Z,4.90
2022-09-23T06:39:44.866Z,4.93
2022-09-23T06:42:11.284Z,5.00
2022-09-23T06:44:37.731Z,4.97
2022-09-23T06:47:04.203Z,5.00
2022-09-23T06:49:31.532Z,4.57
2022-09-23T06:51:57.922Z,4.97
2022-09-23T06:54:24.368Z,4.77
2022-09-23T06:56:51.511Z,5.00
2022-09-23T06:59:18.384Z,4.57
2022-09-23T07:01:46.134Z,4.90
2022-09-23T07:04:12.847Z,5.37
2022-09-23T07:06:39.336Z,5.27
2022-09-23T07:09:06.499Z,4.93
2022-09-23T07:11:33.009Z,5.47
2022-09-23T07:13:59.475Z,5.20
2022-09-23T07:16:25.980Z,5.30
2022-09-23T07:18:53.488Z,5.53
2022-09-23T07:21:19.998Z,5.67
2022-09-23T07:23:50.411Z,5.47
2022-09-23T07:26:18.070Z,6.20
2022-09-23T07:28:44.975Z,5.90
2022-09-23T07:31:19.785Z,11.70
2022-09-23T07:33:55.987Z,19.93
2022-09-23T07:36:22.405Z,18.00
2022-09-23T07:38:49.209Z,6.83
2022-09-23T07:41:17.180Z,6.53
2022-09-23T07:43:44.199Z,6.43
2022-09-23T07:46:16.427Z,6.03
2022-09-23T07:48:43.778Z,6.93
2022-09-23T07:51:11.227Z,5.90
2022-09-23T07:53:37.708Z,5.63
2022-09-23T07:56:07.199Z,5.60
2022-09-23T07:58:34.514Z,5.90
2022-09-23T08:01:02.028Z,5.00
2022-09-23T08:03:29.270Z,5.73
2022-09-23T08:06:02.447Z,5.10
2022-09-23T08:08:28.988Z,4.30
2022-09-23T08:11:00.527Z,4.93
2022-09-23T08:13:26.953Z,4.50
2022-09-23T08:15:55.510Z,4.23
2022-09-23T08:18:22.222Z,4.60
2022-09-23T08:20:48.636Z,4.10
2022-09-23T08:23:15.886Z,3.77
2022-09-23T08:25:44.960Z,3.90
2022-09-23T08:28:16.095Z,3.83
2022-09-23T08:30:48.196Z,3.70
2022-09-23T08:33:15.392Z,3.87
2022-09-23T08:35:43.995Z,3.53
2022-09-23T08:38:10.472Z,3.70
2022-09-23T08:40:42.235Z,3.73
2022-09-23T08:43:15.735Z,3.60
2022-09-23T08:45:43.757Z,3.10
2022-09-23T08:48:15.751Z,3.40
2022-09-23T08:50:43.735Z,2.90
2022-09-23T08:53:29.541Z,3.17
2022-09-23T08:55:58.071Z,3.30
2022-09-23T08:58:34.323Z,3.00
2022-09-23T09:01:19.465Z,3.20
2022-09-23T09:03:52.026Z,3.22
2022-09-23T09:06:26.457Z,3.00
2022-09-23T09:08:55.334Z,4.63
2022-09-23T09:11:23.490Z,5.47
2022-09-23T09:14:00.781Z,3.13
2022-09-23T09:17:00.661Z,2.90
2022-09-23T09:19:37.079Z,3.07
2022-09-23T09:22:05.844Z,3.50
2022-09-23T09:24:34.184Z,3.70
2022-09-23T09:27:01.816Z,3.40
2022-09-23T09:29:35.434Z,3.60
2022-09-23T09:32:12.362Z,3.20
2022-09-23T09:34:43.282Z,3.20
2022-09-23T09:37:20.006Z,2.80
2022-09-23T09:39:46.406Z,3.20
2022-09-23T09:42:17.356Z,2.87
2022-09-23T09:44:49.342Z,2.97
2022-09-23T09:47:28.636Z,6.13
2022-09-23T09:50:07.201Z,2.77
2022-09-23T09:52:33.738Z,2.70
2022-09-23T09:55:20.361Z,2.90
2022-09-23T09:57:47.770Z,5.43
2022-09-23T10:00:18.912Z,3.50
2022-09-23T10:02:45.500Z,3.50
2022-09-23T10:05:30.136Z,3.23
2022-09-23T10:07:56.603Z,6.10
2022-09-23T10:10:33.457Z,3.00
2022-09-23T10:13:14.429Z,2.30
2022-09-23T10:15:44.745Z,1.90
2022-09-23T10:18:19.613Z,4.00
2022-09-23T10:20:46.507Z,2.70
2022-09-23T10:23:16.300Z,3.10
2022-09-23T10:25:42.773Z,2.70
2022-09-23T10:28:29.957Z,2.20
2022-09-23T10:31:12.957Z,2.10
2022-09-23T10:33:46.960Z,2.00
2022-09-23T10:36:14.703Z,1.80
2022-09-23T10:38:41.267Z,2.27
2022-09-23T10:41:37.042Z,4.43
2022-09-23T10:44:22.198Z,2.10
2022-09-23T10:46:57.875Z,1.80
2022-09-23T10:49:43.792Z,2.47
2022-09-23T10:52:22.479Z,1.37
2022-09-23T10:55:05.597Z,1.40
2022-09-23T10:57:44.876Z,1.27
2022-09-23T11:00:17.768Z,1.10
2022-09-23T11:02:47.659Z,1.30
2022-09-23T11:05:32.766Z,1.20
2022-09-23T11:08:22.227Z,2.00
2022-09-23T11:11:03.927Z,1.30
2022-09-23T11:13:54.380Z,1.10
2022-09-23T11:16:27.489Z,1.00
2022-09-23T11:19:12.662Z,1.40
2022-09-23T11:21:50.091Z,2.00
2022-09-23T11:24:25.444Z,1.23
2022-09-23T11:27:04.967Z,1.10
2022-09-23T11:29:35.005Z,1.00
2022-09-23T11:32:21.612Z,1.20
2022-09-23T11:35:16.207Z,1.30
2022-09-23T11:37:44.916Z,1.20
2022-09-23T11:40:23.330Z,1.07
2022-09-23T11:42:56.890Z,1.13
2022-09-23T11:45:30.686Z,2.73
2022-09-23T11:47:59.837Z,2.50
2022-09-23T11:50:32.447Z,1.80
2022-09-23T11:53:07.781Z,1.27
2022-09-23T11:55:48.081Z,1.23
2022-09-23T11:58:26.216Z,1.23
2022-09-23T12:01:01.422Z,0.90
2022-09-23T12:03:48.111Z,1.10
2022-09-23T12:06:20.601Z,1.20
2022-09-23T12:08:49.097Z,1.23
2022-09-23T12:11:21.605Z,1.20
2022-09-23T12:13:59.002Z,1.20
2022-09-23T12:17:04.131Z,1.30
2022-09-23T12:19:42.865Z,1.30
2022-09-23T12:22:12.301Z,1.00
2022-09-23T12:24:44.524Z,1.10
2022-09-23T12:27:15.788Z,0.97
2022-09-23T12:29:42.285Z,1.00
2022-09-23T12:32:17.312Z,1.03
2022-09-23T12:34:49.198Z,0.80
2022-09-23T12:37:43.278Z,1.00
2022-09-23T12:40:30.357Z,1.00
2022-09-23T12:42:57.078Z,1.10
2022-09-23T12:45:34.643Z,0.80
2022-09-23T12:48:16.319Z,1.10
2022-09-23T12:50:51.823Z,1.20
2022-09-23T12:53:30.144Z,1.33
2022-09-23T12:55:58.420Z,1.07
2022-09-23T12:58:43.054Z,0.90
2022-09-23T13:01:27.652Z,1.00
2022-09-23T13:04:13.812Z,1.00
2022-09-23T13:06:41.802Z,1.00
2022-09-23T13:09:13.348Z,1.10
2022-09-23T13:11:43.324Z,0.90
2022-09-23T13:14:12.831Z,1.00
2022-09-23T13:16:43.864Z,1.10
2022-09-23T13:19:25.439Z,1.00
2022-09-23T13:21:54.964Z,1.13
2022-09-23T13:24:21.473Z,0.90
2022-09-23T13:27:04.698Z,1.20
2022-09-23T13:29:36.525Z,1.00
2022-09-23T13:32:03.322Z,0.90
2022-09-23T13:34:34.654Z,1.00
2022-09-23T13:37:22.622Z,1.30
2022-09-23T13:39:49.640Z,1.27
2022-09-23T13:42:29.005Z,1.13
2022-09-23T13:44:57.529Z,1.40
2022-09-23T13:47:25.154Z,1.37
2022-09-23T13:49:51.666Z,1.13
2022-09-23T13:52:29.938Z,1.10
2022-09-23T13:54:56.577Z,1.00
2022-09-23T13:57:30.404Z,1.10
2022-09-23T14:00:01.614Z,1.10
2022-09-23T14:02:30.724Z,1.27
2022-09-23T14:04:58.609Z,1.13
2022-09-23T14:07:25.158Z,1.00
2022-09-23T14:09:53.071Z,1.10
2022-09-23T14:12:22.227Z,1.10
2022-09-23T14:14:51.005Z,1.10
2022-09-23T14:17:22.888Z,1.30
2022-09-23T14:19:50.147Z,1.07
2022-09-23T14:22:26.946Z,1.10
2022-09-23T14:24:54.511Z,1.10
2022-09-23T14:27:23.951Z,1.10
2022-09-23T14:29:50.985Z,1.03
2022-09-23T14:32:22.381Z,1.10
2022-09-23T14:34:52.042Z,1.20
2022-09-23T14:37:37.229Z,1.20
2022-09-23T14:40:05.732Z,1.20
2022-09-23T14:42:37.284Z,1.37
2022-09-23T14:45:05.069Z,1.23
2022-09-23T14:47:32.898Z,1.50
2022-09-23T14:50:17.909Z,2.03
2022-09-23T14:52:50.848Z,2.50
2022-09-23T14:55:17.765Z,2.77
2022-09-23T14:57:45.195Z,2.10
2022-09-23T15:00:17.801Z,1.90
2022-09-23T15:03:00.920Z,1.90
2022-09-23T15:05:42.336Z,1.20
2022-09-23T15:08:10.778Z,1.20
2022-09-23T15:10:38.116Z,1.10
2022-09-23T15:13:09.431Z,1.40
2022-09-23T15:15:36.098Z,1.20
2022-09-23T15:18:03.850Z,1.17
2022-09-23T15:20:30.361Z,1.47
2022-09-23T15:22:56.835Z,1.20
2022-09-23T15:25:30.320Z,1.20
2022-09-23T15:27:56.789Z,1.40
2022-09-23T15:30:23.579Z,1.10
2022-09-23T15:32:50.066Z,1.23
2022-09-23T15:35:21.043Z,1.20
2022-09-23T15:37:49.132Z,1.30
2022-09-23T15:40:19.257Z,1.20
2022-09-23T15:42:47.390Z,1.20
2022-09-23T15:45:13.955Z,1.23
2022-09-23T15:47:40.409Z,1.20
2022-09-23T15:50:07.229Z,1.37
2022-09-23T15:52:34.692Z,2.00
2022-09-23T15:55:01.112Z,1.10
2022-09-23T15:57:27.560Z,1.40
2022-09-23T15:59:58.301Z,1.80
2022-09-23T16:02:24.868Z,1.60
2022-09-23T16:04:52.605Z,1.20
2022-09-23T16:07:19.744Z,1.37
2022-09-23T16:09:46.388Z,1.13
2022-09-23T16:12:13.225Z,1.20
2022-09-23T16:14:39.626Z,1.23
2022-09-23T16:17:07.683Z,1.30
2022-09-23T16:19:35.449Z,1.20
2022-09-23T16:22:02.120Z,1.40
2022-09-23T16:24:29.288Z,1.33
2022-09-23T16:26:59.887Z,1.40
2022-09-23T16:29:27.569Z,1.67
2022-09-23T16:31:55.674Z,1.70
2022-09-23T16:34:22.349Z,2.87
2022-09-23T16:36:48.854Z,2.93
2022-09-23T16:39:15.807Z,2.90
2022-09-23T16:41:43.539Z,3.33
2022-09-23T16:44:12.322Z,2.60
2022-09-23T16:46:42.800Z,3.87
2022-09-23T16:49:12.100Z,3.70
2022-09-23T16:51:38.942Z,3.30
2022-09-23T16:54:14.630Z,2.63
2022-09-23T16:56:46.421Z,2.30
2022-09-23T16:59:13.846Z,2.60
2022-09-23T17:01:59.240Z,2.80
2022-09-23T17:04:26.561Z,2.70
2022-09-23T17:06:53.497Z,2.10
2022-09-23T17:09:21.549Z,1.90
2022-09-23T17:11:51.003Z,1.80
2022-09-23T17:14:17.539Z,1.80
2022-09-23T17:16:44.126Z,1.80
2022-09-23T17:19:11.519Z,1.87
2022-09-23T17:21:38.129Z,1.80
2022-09-23T17:24:04.814Z,2.00
2022-09-23T17:26:31.258Z,2.00
2022-09-23T17:28:59.445Z,1.90
2022-09-23T17:31:26.225Z,1.80
2022-09-23T17:33:52.936Z,1.70
2022-09-23T17:36:20.210Z,1.80
2022-09-23T17:38:47.272Z,2.17
2022-09-23T17:41:15.342Z,1.90
2022-09-23T17:43:41.845Z,1.80
2022-09-23T17:46:10.051Z,2.10
2022-09-23T17:48:38.174Z,2.20
2022-09-23T17:51:06.321Z,3.07
2022-09-23T17:53:35.027Z,2.80
2022-09-23T17:56:04.171Z,5.73
2022-09-23T17:58:31.745Z,15.73
2022-09-23T18:00:58.906Z,21.67
2022-09-23T18:03:26.365Z,18.97
2022-09-23T18:05:52.978Z,9.37
2022-09-23T18:08:19.435Z,5.20
2022-09-23T18:10:46.018Z,4.30
2022-09-23T18:13:12.494Z,4.13
2022-09-23T18:15:39.671Z,3.90
2022-09-23T18:18:06.561Z,3.80
2022-09-23T18:20:33.078Z,4.20
2022-09-23T18:22:59.570Z,3.77
2022-09-23T18:25:39.135Z,3.30
2022-09-23T18:28:06.523Z,3.53
2022-09-23T18:30:33.586Z,3.50
2022-09-23T18:33:00.133Z,3.40
2022-09-23T18:35:26.783Z,3.13
2022-09-23T18:37:53.294Z,3.37
2022-09-23T18:40:19.940Z,3.60
2022-09-23T18:42:47.166Z,3.47
2022-09-23T18:45:13.626Z,3.10
2022-09-23T18:47:58.520Z,3.40
2022-09-23T18:50:40.363Z,3.10
2022-09-23T18:53:07.570Z,2.80
2022-09-23T18:55:35.203Z,2.53
2022-09-23T18:58:02.006Z,2.50
2022-09-23T19:00:28.603Z,2.50
2022-09-23T19:02:55.086Z,2.90
2022-09-23T19:05:21.519Z,3.57
2022-09-23T19:07:47.989Z,2.90
2022-09-23T19:10:14.434Z,2.87
2022-09-23T19:12:40.956Z,2.60
2022-09-23T19:15:08.175Z,2.87
2022-09-23T19:17:34.613Z,2.57
2022-09-23T19:20:01.139Z,2.80
2022-09-23T19:22:27.715Z,2.80
2022-09-23T19:24:54.119Z,2.60
2022-09-23T19:27:20.563Z,3.00
2022-09-23T19:29:48.026Z,2.70
2022-09-23T19:32:15.915Z,2.80
2022-09-23T19:34:43.659Z,3.27
2022-09-23T19:37:10.180Z,2.73
2022-09-23T19:39:37.553Z,2.87
2022-09-23T19:42:04.067Z,2.90
2022-09-23T19:44:30.694Z,3.37
2022-09-23T19:46:57.631Z,3.47
2022-09-23T19:49:25.100Z,3.70
2022-09-23T19:51:52.118Z,3.33
2022-09-23T19:54:21.337Z,3.50
2022-09-23T19:56:48.718Z,3.57
2022-09-23T19:59:18.875Z,3.90
2022-09-23T20:01:46.339Z,3.80
2022-09-23T20:04:12.830Z,3.67
2022-09-23T20:06:39.446Z,3.87
2022-09-23T20:09:06.254Z,3.90
2022-09-23T20:11:33.466Z,4.23
2022-09-23T20:14:02.169Z,4.00
2022-09-23T20:16:31.825Z,4.30
2022-09-23T20:18:59.751Z,4.30
2022-09-23T20:21:26.697Z,4.67
2022-09-23T20:23:53.201Z,5.47
2022-09-23T20:26:38.174Z,4.73
2022-09-23T20:29:04.672Z,4.30
2022-09-23T20:31:32.243Z,4.57
2022-09-23T20:33:58.899Z,5.03
2022-09-23T20:36:29.386Z,4.93
2022-09-23T20:38:56.727Z,5.00
2022-09-23T20:41:23.547Z,5.27
2022-09-23T20:43:59.458Z,5.23
2022-09-23T20:46:26.747Z,5.57
2022-09-23T20:48:54.270Z,5.53
2022-09-23T20:51:20.783Z,6.13
2022-09-23T20:53:53.434Z,5.87
2022-09-23T20:56:23.338Z,5.60
2022-09-23T20:58:50.854Z,5.57
2022-09-23T21:01:17.776Z,5.53
2022-09-23T21:03:45.187Z,5.70
2022-09-23T21:06:13.891Z,5.30
2022-09-23T21:08:41.022Z,5.47
2022-09-23T21:11:09.281Z,6.10
2022-09-23T21:13:35.761Z,5.50
2022-09-23T21:16:10.633Z,5.93
2022-09-23T21:18:37.990Z,5.70
2022-09-23T21:21:05.467Z,5.80
2022-09-23T21:23:33.136Z,5.40
2022-09-23T21:26:04.245Z,5.67
2022-09-23T21:28:32.046Z,5.90
2022-09-23T21:30:59.464Z,5.70
2022-09-23T21:33:26.016Z,5.47
2022-09-23T21:35:56.020Z,5.90
2022-09-23T21:38:23.145Z,5.90
2022-09-23T21:40:55.760Z,6.20
2022-09-23T21:43:23.580Z,6.20
2022-09-23T21:45:58.124Z,5.90
2022-09-23T21:48:24.567Z,5.77
2022-09-23T21:50:55.128Z,5.97
2022-09-23T21:53:23.706Z,6.03
2022-09-23T21:55:50.527Z,6.07
2022-09-23T21:58:16.971Z,5.73
2022-09-23T22:00:44.036Z,6.37
2022-09-23T22:03:11.004Z,5.97
2022-09-23T22:05:43.977Z,6.13
2022-09-23T22:08:10.694Z,6.10
2022-09-23T22:10:37.534Z,5.63
2022-09-23T22:13:06.278Z,5.60
2022-09-23T22:15:36.723Z,6.10
2022-09-23T22:18:05.456Z,6.20
2022-09-23T22:20:33.134Z,5.70
2022-09-23T22:22:59.616Z,5.97
2022-09-23T22:25:26.076Z,5.90
2022-09-23T22:28:11.324Z,5.40
2022-09-23T22:30:57.058Z,5.40
2022-09-23T22:33:23.636Z,5.17
2022-09-23T22:35:50.998Z,5.30
2022-09-23T22:38:17.416Z,5.60
2022-09-23T22:40:43.835Z,5.37
2022-09-23T22:43:10.313Z,5.33
2022-09-23T22:45:37.682Z,5.67
2022-09-23T22:48:04.647Z,5.30
2022-09-23T22:50:31.175Z,5.50
2022-09-23T22:52:57.601Z,5.90
2022-09-23T22:55:25.369Z,5.70
2022-09-23T22:57:51.800Z,5.67
2022-09-23T23:00:18.273Z,5.50
2022-09-23T23:02:44.733Z,5.43
2022-09-23T23:05:11.621Z,5.67
2022-09-23T23:07:38.095Z,5.80
2022-09-23T23:10:07.242Z,5.57
2022-09-23T23:12:33.837Z,5.80
2022-09-23T23:15:00.257Z,4.90
2022-09-23T23:17:26.732Z,5.30
2022-09-23T23:19:53.773Z,5.93
2022-09-23T23:22:20.187Z,5.73
2022-09-23T23:24:46.662Z,5.33
2022-09-23T23:27:13.074Z,5.30
2022-09-23T23:29:39.511Z,5.53
2022-09-23T23:32:07.645Z,5.30
2022-09-23T23:34:34.129Z,5.50
2022-09-23T23:37:00.740Z,5.57
2022-09-23T23:39:27.492Z,5.47
2022-09-23T23:41:55.051Z,5.67
2022-09-23T23:44:23.290Z,6.03
2022-09-23T23:46:49.745Z,5.27
2022-09-23T23:49:16.382Z,5.53
2022-09-23T23:51:42.876Z,4.87
2022-09-23T23:54:11.012Z,6.10
2022-09-23T23:56:37.506Z,5.10
2022-09-23T23:59:04.086Z,5.20
